Hlavní strana
METAR-TAF:

METAR-TAF

Letiště :

Augsburg, Německo

zeměpisná šířka: 48-26N, zeměpisná délka: 010-56E, výška: 461 m

Aktuální stav počasí

Zpráva byla vytvořena před 20 minutami, v 10:20 UTC
vítr z různých směrů 2 kt
Teplota 19°C
Vlhkost vzduchu 52%
Tlak 1015 hPa
Viditelnost 10 km a více
Žádná oblačnost pod 1500 m, nevyskytují se cumulonimby.

METAR: EDMA 151020Z VRB02KT CAVOK 19/09 Q1015

Čas: 12:40 (10:40 UTC)

Předpověď počasí

Zpráva byla vytvořena před 2 hodinami a 40 minutami, v 08:00 UTC
Předpověď platná od 15 v 09 UTC do 15 v 18 UTC
Východní vítr 5 kt
Viditelnost 10 km a více
Žádná oblačnost pod 1500 m, nevyskytují se cumulonimby.
Změna
od 15 v 15 UTC do 15 v 17 UTC
vítr z různých směrů 2 kt

TAF: EDMA 150800Z 1509/1518 09005KT CAVOK BECMG 1515/1517 VRB02KT

Stav a předpovědi počasí z více než 4 000 letišť (zprávy METAR a TAF).

Červené a žluté tečky na mapě představují dostupné meteorologické stanice.

Když kurzor umístíte na tečku, zobrazí se název stanice.

Pak kliknutím zobrazíte stav a předpověď počasí.

Chcete-li změnit mapu, kliknutím na zelené tlačítko se znaménkem +mapu přiblížíte, kliknutím na zelené tlačítko se znaménkem – mapu oddálíte a kliknutím na zelené šipky přejdete na sousední mapy.


METAR-TAF: